Terminal Aerodrome Forecast
Issued by NWS

Home | Current Version | Previous Version | Graphics & Text | Print | Product List | Glossary On
Versions: 1 2 3 4 5 6 7 8 9 10 11 12 13 14 15 16 17 18 19 20 21 22 23 24 25 26 27 28 29 30 31 32 33 34 35 36 37 38 39 40 41 42 43 44 45 46 47 48
005
FTUS43 KLOT 291917 AAA
TAFGYY
TAF AMD
KGYY 291917Z 2919/3018 04019G28KT P6SM VCSH SCT017 BKN045
      TEMPO 2920/2922 6SM SHRA OVC020
     FM300100 03015G25KT P6SM VCSH BKN010
     FM300700 03013G19KT 6SM BR VCSH OVC008
     FM301500 04015G25KT P6SM VCSH OVC008=

USA.gov is the U.S. government's official web portal to all federal, state and local government web resources and services.